Fort Greely, Alaska
Current Conditions -  °F | °C
As of 12:53 PM on Saturday 25 Oct 2014 (Local Time) from PABI Reporting Station
Overcast Overcast  
Wind Chill: 20°   Ceiling: 3000
Heat Index: 20°   Visibility: 10mi
Dew Point: 18°   Wind: 3mph
Humidity: 92%   Direction: 110°ESE
Pressure: 29.92"   Gusts: NA
Location:  63.98°N, 145.76°W
Report Text: PABI 252053Z 11003KT 10SM FEW020 BKN030 OVC060 M07/M08 A2992 RMK AO2 SLP166 60000 T10671078 58009
Loading
Personal Weather Stations






























Interactive Weather Map
Tropical Storm Tracking
New forecast layout! Learn more

10-Day Weather Forecast

Advertisements
Track Severe Weather on mobile